createdAt,value
2018-02-20T00:01:21.091Z,95394.57
2018-02-20T00:03:48.836Z,95382.77
2018-02-20T00:06:16.349Z,95402.78
2018-02-20T00:08:43.894Z,95398.59
2018-02-20T00:11:11.818Z,95382.08
2018-02-20T00:13:39.383Z,95396.45
2018-02-20T00:16:06.905Z,95381.43
2018-02-20T00:18:34.449Z,95377.00
2018-02-20T00:21:01.970Z,95374.97
2018-02-20T00:23:29.481Z,95362.48
2018-02-20T00:25:57.021Z,95373.84
2018-02-20T00:28:24.547Z,95362.55
2018-02-20T00:30:52.088Z,95370.41
2018-02-20T00:33:19.602Z,95372.97
2018-02-20T00:35:47.111Z,95362.23
2018-02-20T00:38:14.632Z,95379.33
2018-02-20T00:40:42.152Z,95360.53
2018-02-20T00:43:09.687Z,95356.75
2018-02-20T00:45:37.243Z,95359.66
2018-02-20T00:48:04.808Z,95372.47
2018-02-20T00:50:32.336Z,95361.15
2018-02-20T00:52:59.868Z,95352.07
2018-02-20T00:55:27.397Z,95354.13
2018-02-20T00:57:54.919Z,95352.72
2018-02-20T01:00:22.491Z,95350.65
2018-02-20T01:02:50.016Z,95349.53
2018-02-20T01:05:17.550Z,95341.65
2018-02-20T01:07:45.081Z,95338.09
2018-02-20T01:10:12.606Z,95339.83
2018-02-20T01:12:40.138Z,95349.63
2018-02-20T01:15:07.654Z,95317.55
2018-02-20T01:17:35.161Z,95337.77
2018-02-20T01:20:02.682Z,95331.59
2018-02-20T01:22:30.224Z,95336.20
2018-02-20T01:24:57.768Z,95330.83
2018-02-20T01:27:25.290Z,95315.33
2018-02-20T01:29:52.824Z,95312.86
2018-02-20T01:32:20.343Z,95308.77
2018-02-20T01:34:47.856Z,95313.27
2018-02-20T01:37:15.395Z,95337.44
2018-02-20T01:39:42.909Z,95303.94
2018-02-20T01:42:10.421Z,95311.53
2018-02-20T01:44:37.946Z,95320.63
2018-02-20T01:47:05.463Z,95313.27
2018-02-20T01:49:33.066Z,95310.44
2018-02-20T01:52:00.575Z,95299.22
2018-02-20T01:54:28.105Z,95303.31
2018-02-20T01:56:55.613Z,95289.81
2018-02-20T01:59:23.171Z,95302.77
2018-02-20T02:01:50.733Z,95304.34
2018-02-20T02:04:18.259Z,95304.27
2018-02-20T02:06:45.775Z,95308.70
2018-02-20T02:09:13.301Z,95297.16
2018-02-20T02:11:40.813Z,95297.77
2018-02-20T02:14:08.355Z,95291.70
2018-02-20T02:16:35.868Z,95308.30
2018-02-20T02:19:03.401Z,95298.81
2018-02-20T02:21:30.930Z,95295.56
2018-02-20T02:23:58.450Z,95310.83
2018-02-20T02:26:26.110Z,95286.80
2018-02-20T02:28:53.632Z,95293.98
2018-02-20T02:31:21.175Z,95296.42
2018-02-20T02:33:48.722Z,95284.27
2018-02-20T02:36:16.373Z,95304.27
2018-02-20T02:38:43.899Z,95290.98
2018-02-20T02:41:11.442Z,95304.58
2018-02-20T02:43:39.061Z,95299.83
2018-02-20T02:46:06.713Z,95305.45
2018-02-20T02:48:34.223Z,95313.66
2018-02-20T02:51:01.748Z,95293.11
2018-02-20T02:53:29.296Z,95277.41
2018-02-20T02:55:56.862Z,95311.63
2018-02-20T02:58:24.421Z,95300.48
2018-02-20T03:00:52.280Z,95308.94
2018-02-20T03:03:19.831Z,95302.22
2018-02-20T03:05:47.367Z,95298.89
2018-02-20T03:08:14.900Z,95305.92
2018-02-20T03:10:42.456Z,95295.90
2018-02-20T03:13:10.016Z,95297.53
2018-02-20T03:15:37.560Z,95297.47
2018-02-20T03:18:05.086Z,95297.61
2018-02-20T03:20:32.595Z,95304.83
2018-02-20T03:23:00.136Z,95301.34
2018-02-20T03:25:27.695Z,95316.59
2018-02-20T03:27:55.210Z,95293.28
2018-02-20T03:30:22.759Z,95305.59
2018-02-20T03:32:50.904Z,95308.29
2018-02-20T03:35:18.433Z,95298.27
2018-02-20T03:37:45.949Z,95308.29
2018-02-20T03:40:13.473Z,95315.66
2018-02-20T03:42:41.025Z,95296.60
2018-02-20T03:45:08.542Z,95284.98
2018-02-20T03:47:36.087Z,95287.05
2018-02-20T03:50:03.624Z,95301.89
2018-02-20T03:52:31.136Z,95277.41
2018-02-20T03:54:58.689Z,95292.25
2018-02-20T03:57:26.220Z,95302.77
2018-02-20T03:59:53.728Z,95288.30
2018-02-20T04:02:21.245Z,95281.98
2018-02-20T04:04:48.938Z,95308.37
2018-02-20T04:07:16.483Z,95301.17
2018-02-20T04:09:43.997Z,95285.76
2018-02-20T04:12:11.520Z,95285.61
2018-02-20T04:14:39.060Z,95295.58
2018-02-20T04:17:06.588Z,95290.44
2018-02-20T04:19:34.148Z,95289.17
2018-02-20T04:22:01.917Z,95295.95
2018-02-20T04:24:29.452Z,95292.33
2018-02-20T04:26:56.972Z,95301.73
2018-02-20T04:29:24.510Z,95299.29
2018-02-20T04:31:52.077Z,95286.95
2018-02-20T04:34:19.619Z,95280.48
2018-02-20T04:36:47.195Z,95283.39
2018-02-20T04:39:14.724Z,95275.59
2018-02-20T04:41:42.237Z,95287.75
2018-02-20T04:44:09.803Z,95279.77
2018-02-20T04:46:37.336Z,95289.17
2018-02-20T04:49:04.847Z,95285.39
2018-02-20T04:51:32.362Z,95291.23
2018-02-20T04:53:59.885Z,95276.92
2018-02-20T04:56:27.451Z,95273.69
2018-02-20T04:58:54.978Z,95297.47
2018-02-20T05:01:22.503Z,95287.92
2018-02-20T05:03:50.011Z,95284.44
2018-02-20T05:06:17.510Z,95280.16
2018-02-20T05:08:45.046Z,95285.46
2018-02-20T05:11:12.617Z,95289.09
2018-02-20T05:13:40.250Z,95301.17
2018-02-20T05:16:07.773Z,95278.42
2018-02-20T05:18:35.553Z,95283.39
2018-02-20T05:21:03.184Z,95291.77
2018-02-20T05:23:30.768Z,95311.84
2018-02-20T05:25:58.314Z,95310.44
2018-02-20T05:28:26.615Z,95290.19
2018-02-20T05:30:54.174Z,95300.01
2018-02-20T05:33:21.700Z,95305.67
2018-02-20T05:35:49.219Z,95302.50
2018-02-20T05:38:18.569Z,95296.72
2018-02-20T05:40:47.031Z,95291.31
2018-02-20T05:43:14.830Z,95306.73
2018-02-20T05:45:42.343Z,95312.44
2018-02-20T05:48:09.862Z,95305.42
2018-02-20T05:50:40.153Z,95313.52
2018-02-20T05:53:07.675Z,95313.07
2018-02-20T05:55:35.335Z,95313.30
2018-02-20T05:58:02.855Z,95300.97
2018-02-20T06:00:30.392Z,95336.00
2018-02-20T06:02:57.915Z,95321.57
2018-02-20T06:05:25.430Z,95325.71
2018-02-20T06:07:52.987Z,95328.52
2018-02-20T06:10:20.566Z,95338.13
2018-02-20T06:12:48.094Z,95318.03
2018-02-20T06:15:15.629Z,95322.45
2018-02-20T06:17:43.149Z,95335.73
2018-02-20T06:20:10.824Z,95331.41
2018-02-20T06:22:38.356Z,95317.58
2018-02-20T06:25:05.897Z,95308.46
2018-02-20T06:27:33.423Z,95320.87
2018-02-20T06:30:01.801Z,95316.42
2018-02-20T06:32:29.326Z,95311.98
2018-02-20T06:34:56.852Z,95294.72
2018-02-20T06:37:24.445Z,95296.23
2018-02-20T06:39:51.979Z,95320.23
2018-02-20T06:42:19.518Z,95301.98
2018-02-20T06:44:47.077Z,95310.19
2018-02-20T06:47:14.658Z,95303.69
2018-02-20T06:49:42.366Z,95306.64
2018-02-20T06:52:09.909Z,95288.30
2018-02-20T06:54:37.500Z,95293.53
2018-02-20T06:57:05.077Z,95296.62
2018-02-20T06:59:32.628Z,95301.47
2018-02-20T07:02:00.427Z,95304.47
2018-02-20T07:04:28.282Z,95303.22
2018-02-20T07:06:55.830Z,95311.04
2018-02-20T07:09:23.373Z,95337.03
2018-02-20T07:11:50.939Z,95306.37
2018-02-20T07:14:18.750Z,95330.80
2018-02-20T07:16:46.298Z,95331.81
2018-02-20T07:19:13.886Z,95323.09
2018-02-20T07:21:41.477Z,95312.91
2018-02-20T07:24:09.046Z,95316.84
2018-02-20T07:26:36.588Z,95324.39
2018-02-20T07:29:04.139Z,95312.23
2018-02-20T07:31:31.790Z,95309.38
2018-02-20T07:33:59.520Z,95322.30
2018-02-20T07:36:27.061Z,95314.67
2018-02-20T07:38:54.587Z,95324.65
2018-02-20T07:41:22.171Z,95307.56
2018-02-20T07:43:49.790Z,95299.73
2018-02-20T07:46:17.413Z,95313.26
2018-02-20T07:48:44.990Z,95311.98
2018-02-20T07:51:12.545Z,95303.99
2018-02-20T07:53:40.135Z,95317.59
2018-02-20T07:56:07.765Z,95290.42
2018-02-20T07:58:35.303Z,95302.28
2018-02-20T08:01:02.866Z,95324.62
2018-02-20T08:03:30.437Z,95342.60
2018-02-20T08:05:58.024Z,95308.26
2018-02-20T08:08:25.578Z,95300.43
2018-02-20T08:10:53.178Z,95302.05
2018-02-20T08:13:20.748Z,95302.06
2018-02-20T08:15:48.340Z,95297.15
2018-02-20T08:18:15.941Z,95311.63
2018-02-20T08:20:43.579Z,95286.12
2018-02-20T08:23:11.152Z,95292.51
2018-02-20T08:25:38.718Z,95309.03
2018-02-20T08:28:06.275Z,95292.77
2018-02-20T08:30:33.871Z,95295.50
2018-02-20T08:33:01.447Z,95296.76
2018-02-20T08:35:29.005Z,95346.64
2018-02-20T08:37:56.794Z,95308.38
2018-02-20T08:40:24.302Z,95284.22
2018-02-20T08:42:51.848Z,95292.58
2018-02-20T08:45:19.373Z,95285.97
2018-02-20T08:47:46.939Z,95284.66
2018-02-20T08:50:14.454Z,95295.13
2018-02-20T08:52:42.015Z,95290.69
2018-02-20T08:55:09.583Z,95281.69
2018-02-20T08:57:37.244Z,95285.69
2018-02-20T09:00:07.684Z,95285.92
2018-02-20T09:02:35.219Z,95294.83
2018-02-20T09:05:03.362Z,95267.56
2018-02-20T09:07:31.259Z,95274.55
2018-02-20T09:09:58.787Z,95284.36
2018-02-20T09:12:26.397Z,95278.08
2018-02-20T09:14:53.930Z,95286.39
2018-02-20T09:17:21.541Z,95276.84
2018-02-20T09:19:49.106Z,95291.27
2018-02-20T09:22:16.691Z,95281.92
2018-02-20T09:24:44.375Z,95269.66
2018-02-20T09:27:11.969Z,95257.14
2018-02-20T09:29:39.793Z,95267.77
2018-02-20T09:32:07.356Z,95266.47
2018-02-20T09:34:34.915Z,95263.89
2018-02-20T09:37:02.475Z,95272.11
2018-02-20T09:39:30.019Z,95263.44
2018-02-20T09:41:57.592Z,95269.08
2018-02-20T09:44:25.111Z,95262.07
2018-02-20T09:46:52.636Z,95261.87
2018-02-20T09:49:20.246Z,95274.66
2018-02-20T09:51:47.768Z,95259.69
2018-02-20T09:54:15.429Z,95251.64
2018-02-20T09:56:42.957Z,95249.89
2018-02-20T09:59:10.525Z,95249.23
2018-02-20T10:01:38.225Z,95246.98
2018-02-20T10:04:05.772Z,95236.95
2018-02-20T10:06:33.344Z,95242.00
2018-02-20T10:09:01.816Z,95245.19
2018-02-20T10:11:29.384Z,95224.08
2018-02-20T10:13:56.920Z,95265.71
2018-02-20T10:16:24.449Z,95224.81
2018-02-20T10:18:51.976Z,95237.51
2018-02-20T10:21:19.548Z,95219.55
2018-02-20T10:23:47.125Z,95201.58
2018-02-20T10:26:14.695Z,95205.72
2018-02-20T10:28:42.300Z,95235.31
2018-02-20T10:31:10.104Z,95222.95
2018-02-20T10:33:37.748Z,95196.19
2018-02-20T10:36:05.311Z,95192.38
2018-02-20T10:38:32.889Z,95209.59
2018-02-20T10:41:01.032Z,95197.23
2018-02-20T10:43:28.588Z,95198.44
2018-02-20T10:45:56.112Z,95196.44
2018-02-20T10:48:23.692Z,95215.57
2018-02-20T10:50:51.202Z,95184.56
2018-02-20T10:53:18.817Z,95192.39
2018-02-20T10:55:46.992Z,95198.20
2018-02-20T10:58:14.580Z,95180.50
2018-02-20T11:00:42.122Z,95180.89
2018-02-20T11:03:09.648Z,95226.83
2018-02-20T11:05:37.242Z,95185.94
2018-02-20T11:08:04.770Z,95171.88
2018-02-20T11:10:32.294Z,95179.30
2018-02-20T11:12:59.821Z,95179.34
2018-02-20T11:15:27.341Z,95180.31
2018-02-20T11:17:54.872Z,95173.68
2018-02-20T11:20:22.390Z,95178.46
2018-02-20T11:22:49.946Z,95158.10
2018-02-20T11:25:17.531Z,95166.86
2018-02-20T11:27:45.290Z,95158.27
2018-02-20T11:30:13.866Z,95165.70
2018-02-20T11:32:41.382Z,95160.52
2018-02-20T11:35:08.916Z,95160.09
2018-02-20T11:37:36.452Z,95171.11
2018-02-20T11:40:04.024Z,95153.53
2018-02-20T11:42:31.567Z,95150.20
2018-02-20T11:44:59.081Z,95153.52
2018-02-20T11:47:26.797Z,95157.86
2018-02-20T11:49:54.394Z,95144.73
2018-02-20T11:52:21.952Z,95137.23
2018-02-20T11:54:49.995Z,95153.43
2018-02-20T11:57:17.523Z,95138.83
2018-02-20T11:59:45.165Z,95135.71
2018-02-20T12:02:12.746Z,95148.84
2018-02-20T12:04:40.344Z,95131.47
2018-02-20T12:07:07.872Z,95132.69
2018-02-20T12:09:35.484Z,95121.34
2018-02-20T12:12:03.065Z,95125.53
2018-02-20T12:14:30.657Z,95124.39
2018-02-20T12:16:58.227Z,95118.31
2018-02-20T12:19:25.845Z,95113.45
2018-02-20T12:21:53.465Z,95114.10
2018-02-20T12:24:21.017Z,95125.16
2018-02-20T12:26:48.652Z,95111.57
2018-02-20T12:29:16.247Z,95107.08
2018-02-20T12:31:43.839Z,95105.48
2018-02-20T12:34:11.387Z,95135.39
2018-02-20T12:36:38.976Z,95117.03
2018-02-20T12:39:06.591Z,95096.23
2018-02-20T12:41:35.362Z,95101.98
2018-02-20T12:44:02.901Z,95108.42
2018-02-20T12:46:31.768Z,95117.86
2018-02-20T12:48:59.323Z,95134.78
2018-02-20T12:51:26.922Z,95090.23
2018-02-20T12:53:54.567Z,95099.09
2018-02-20T12:56:22.230Z,95083.88
2018-02-20T12:58:49.832Z,95096.20
2018-02-20T13:01:18.173Z,95088.53
2018-02-20T13:03:45.769Z,95086.22
2018-02-20T13:06:13.313Z,95085.74
2018-02-20T13:08:41.057Z,95092.42
2018-02-20T13:11:08.636Z,95091.96
2018-02-20T13:13:36.520Z,95083.50
2018-02-20T13:16:04.114Z,95098.35
2018-02-20T13:18:32.157Z,95089.73
2018-02-20T13:20:59.814Z,95089.34
2018-02-20T13:23:27.379Z,95082.34
2018-02-20T13:25:55.175Z,95085.42
2018-02-20T13:28:22.678Z,95066.84
2018-02-20T13:30:50.380Z,95081.81
2018-02-20T13:33:17.996Z,95080.70
2018-02-20T13:35:45.551Z,95077.30
2018-02-20T13:38:13.086Z,95083.63
2018-02-20T13:40:40.800Z,95085.77
2018-02-20T13:43:09.167Z,95081.58
2018-02-20T13:45:36.729Z,95083.35
2018-02-20T13:48:04.323Z,95078.67
2018-02-20T13:50:31.896Z,95071.83
2018-02-20T13:52:59.519Z,95065.66
2018-02-20T13:55:27.974Z,95079.13
2018-02-20T13:57:55.583Z,95067.45
2018-02-20T14:00:23.997Z,95083.78
2018-02-20T14:02:51.586Z,95064.16
2018-02-20T14:05:19.170Z,95085.95
2018-02-20T14:07:46.744Z,95082.56
2018-02-20T14:10:15.354Z,95083.80
2018-02-20T14:12:42.874Z,95077.19
2018-02-20T14:15:10.417Z,95059.72
2018-02-20T14:17:38.057Z,95062.94
2018-02-20T14:20:05.598Z,95057.20
2018-02-20T14:22:33.122Z,95054.58
2018-02-20T14:25:00.718Z,95054.41
2018-02-20T14:27:28.289Z,95050.09
2018-02-20T14:29:56.097Z,95052.96
2018-02-20T14:32:23.728Z,95046.20
2018-02-20T14:34:51.268Z,95048.27
2018-02-20T14:37:19.792Z,95053.05
2018-02-20T14:39:47.314Z,95045.73
2018-02-20T14:42:14.854Z,95062.40
2018-02-20T14:44:42.426Z,95054.05
2018-02-20T14:47:09.959Z,95038.33
2018-02-20T14:49:37.506Z,95057.59
2018-02-20T14:52:05.878Z,95030.79
2018-02-20T14:54:33.441Z,95044.56
2018-02-20T14:57:00.978Z,95038.21
2018-02-20T14:59:28.498Z,95029.73
2018-02-20T15:01:56.055Z,95035.10
2018-02-20T15:04:24.071Z,95030.77
2018-02-20T15:06:51.616Z,95043.47
2018-02-20T15:09:19.214Z,95042.30
2018-02-20T15:11:46.777Z,95041.48
2018-02-20T15:14:14.807Z,95042.86
2018-02-20T15:16:42.610Z,95035.62
2018-02-20T15:19:10.295Z,95022.80
2018-02-20T15:21:37.904Z,95039.16
2018-02-20T15:24:05.807Z,95036.92
2018-02-20T15:26:33.403Z,95036.22
2018-02-20T15:29:00.947Z,95045.53
2018-02-20T15:31:28.528Z,95048.61
2018-02-20T15:33:56.097Z,95049.78
2018-02-20T15:36:23.630Z,95041.22
2018-02-20T15:38:51.149Z,95039.55
2018-02-20T15:41:18.728Z,95046.81
2018-02-20T15:43:46.304Z,95055.09
2018-02-20T15:46:13.922Z,95050.20
2018-02-20T15:48:41.491Z,95044.27
2018-02-20T15:51:09.080Z,95043.66
2018-02-20T15:53:36.709Z,95031.16
2018-02-20T15:56:04.361Z,95051.28
2018-02-20T15:58:32.018Z,95039.13
2018-02-20T16:00:59.573Z,95038.09
2018-02-20T16:03:27.102Z,95042.98
2018-02-20T16:05:54.682Z,95038.19
2018-02-20T16:08:22.268Z,95051.03
2018-02-20T16:10:49.831Z,95047.47
2018-02-20T16:13:17.393Z,95043.84
2018-02-20T16:16:01.881Z,95040.13
2018-02-20T16:18:29.583Z,95048.25
2018-02-20T16:20:57.139Z,95045.89
2018-02-20T16:23:24.688Z,95043.02
2018-02-20T16:25:52.252Z,95054.72
2018-02-20T16:28:19.784Z,95049.41
2018-02-20T16:30:47.302Z,95039.16
2018-02-20T16:33:14.852Z,95028.02
2018-02-20T16:35:42.380Z,95034.66
2018-02-20T16:38:10.023Z,95030.47
2018-02-20T16:40:37.567Z,95036.45
2018-02-20T16:43:05.168Z,95035.64
2018-02-20T16:45:32.747Z,95037.31
2018-02-20T16:48:01.371Z,95049.56
2018-02-20T16:50:28.912Z,95043.13
2018-02-20T16:52:56.459Z,95045.43
2018-02-20T16:55:23.973Z,95048.20
2018-02-20T16:57:51.517Z,95048.42
2018-02-20T17:00:19.070Z,95047.22
2018-02-20T17:02:46.606Z,95043.27
2018-02-20T17:05:14.171Z,95042.66
2018-02-20T17:07:41.730Z,95047.00
2018-02-20T17:10:09.267Z,95046.13
2018-02-20T17:12:37.298Z,95052.57
2018-02-20T17:15:04.900Z,95043.55
2018-02-20T17:17:32.445Z,95050.26
2018-02-20T17:20:00.494Z,95047.91
2018-02-20T17:22:28.024Z,95047.82
2018-02-20T17:24:55.673Z,95051.12
2018-02-20T17:27:23.207Z,95048.77
2018-02-20T17:29:50.787Z,95039.52
2018-02-20T17:32:18.318Z,95045.59
2018-02-20T17:34:45.848Z,95048.37
2018-02-20T17:37:13.424Z,95049.95
2018-02-20T17:39:40.946Z,95038.38
2018-02-20T17:42:08.521Z,95063.13
2018-02-20T17:44:36.835Z,95047.86
2018-02-20T17:47:04.342Z,95045.11
2018-02-20T17:49:31.886Z,94984.98
2018-02-20T17:51:59.427Z,95054.25
2018-02-20T17:54:26.956Z,95058.75
2018-02-20T17:56:54.506Z,95063.66
2018-02-20T17:59:22.018Z,95051.03
2018-02-20T18:01:49.577Z,95047.15
2018-02-20T18:04:17.141Z,95043.77
2018-02-20T18:06:44.665Z,95051.58
2018-02-20T18:09:12.245Z,95045.98
2018-02-20T18:11:39.865Z,95045.30
2018-02-20T18:14:07.687Z,95052.42
2018-02-20T18:16:35.184Z,95052.28
2018-02-20T18:19:02.722Z,95046.45
2018-02-20T18:21:30.249Z,95042.97
2018-02-20T18:23:57.775Z,95046.84
2018-02-20T18:26:25.360Z,95047.45
2018-02-20T18:28:52.882Z,95049.35
2018-02-20T18:31:20.417Z,95049.57
2018-02-20T18:33:47.968Z,95035.52
2018-02-20T18:36:15.500Z,95050.30
2018-02-20T18:38:43.981Z,95050.84
2018-02-20T18:41:12.509Z,95051.46
2018-02-20T18:43:40.306Z,95043.58
2018-02-20T18:46:07.840Z,95056.35
2018-02-20T18:48:35.432Z,95049.42
2018-02-20T18:51:03.748Z,95040.63
2018-02-20T18:53:31.262Z,95055.65
2018-02-20T18:55:58.869Z,95040.32
2018-02-20T18:58:26.402Z,95047.50
2018-02-20T19:00:54.119Z,95055.65
2018-02-20T19:03:21.640Z,95045.08
2018-02-20T19:05:49.176Z,95039.59
2018-02-20T19:08:16.780Z,95041.58
2018-02-20T19:10:44.316Z,95041.66
2018-02-20T19:13:12.844Z,95038.31
2018-02-20T19:15:40.563Z,95065.83
2018-02-20T19:18:09.973Z,95041.85
2018-02-20T19:20:37.509Z,95045.27
2018-02-20T19:23:05.047Z,95034.92
2018-02-20T19:25:32.610Z,95038.80
2018-02-20T19:28:00.135Z,95026.13
2018-02-20T19:30:27.674Z,95025.05
2018-02-20T19:32:55.223Z,95031.59
2018-02-20T19:35:22.826Z,95000.13
2018-02-20T19:37:50.390Z,95031.50
2018-02-20T19:40:18.059Z,95026.59
2018-02-20T19:42:45.728Z,95046.53
2018-02-20T19:45:13.344Z,95033.39
2018-02-20T19:47:41.375Z,95031.50
2018-02-20T19:50:10.732Z,95030.86
2018-02-20T19:52:38.414Z,95034.95
2018-02-20T19:55:06.086Z,95025.20
2018-02-20T19:57:33.673Z,95031.32
2018-02-20T20:00:01.263Z,95028.75
2018-02-20T20:02:28.955Z,95029.67
2018-02-20T20:04:56.588Z,95032.30
2018-02-20T20:07:24.287Z,95017.97
2018-02-20T20:09:51.840Z,95023.00
2018-02-20T20:12:19.384Z,95024.72
2018-02-20T20:14:46.910Z,95016.69
2018-02-20T20:17:14.554Z,95019.28
2018-02-20T20:19:42.200Z,95004.59
2018-02-20T20:22:11.066Z,95005.30
2018-02-20T20:24:38.674Z,95005.23
2018-02-20T20:27:06.223Z,95001.05
2018-02-20T20:29:33.800Z,94989.57
2018-02-20T20:32:01.420Z,94996.28
2018-02-20T20:34:29.004Z,94997.81
2018-02-20T20:36:56.654Z,94997.97
2018-02-20T20:39:24.224Z,94996.28
2018-02-20T20:41:51.783Z,94998.48
2018-02-20T20:44:19.412Z,94997.88
2018-02-20T20:46:47.010Z,95001.17
2018-02-20T20:49:14.595Z,95004.32
2018-02-20T20:51:42.940Z,94996.05
2018-02-20T20:54:10.527Z,94995.50
2018-02-20T20:56:38.218Z,94998.27
2018-02-20T20:59:05.788Z,94989.81
2018-02-20T21:01:33.378Z,94998.27
2018-02-20T21:04:00.957Z,94993.20
2018-02-20T21:06:28.545Z,94999.92
2018-02-20T21:08:56.238Z,94991.09
2018-02-20T21:11:23.785Z,94994.88
2018-02-20T21:13:51.573Z,94985.81
2018-02-20T21:16:19.174Z,94999.06
2018-02-20T21:18:46.763Z,94990.16
2018-02-20T21:21:14.342Z,94997.97
2018-02-20T21:23:42.178Z,94999.16
2018-02-20T21:26:09.779Z,94998.58
2018-02-20T21:28:37.362Z,94994.24
2018-02-20T21:31:05.034Z,95004.20
2018-02-20T21:33:32.612Z,94995.13
2018-02-20T21:36:00.229Z,94993.51
2018-02-20T21:38:28.754Z,95004.05
2018-02-20T21:40:57.168Z,94997.91
2018-02-20T21:43:25.708Z,94986.48
2018-02-20T21:45:53.279Z,95002.70
2018-02-20T21:48:20.866Z,95013.08
2018-02-20T21:50:48.577Z,94999.55
2018-02-20T21:53:16.151Z,95002.97
2018-02-20T21:55:43.737Z,94992.05
2018-02-20T21:58:11.296Z,95033.38
2018-02-20T22:00:38.937Z,95005.27
2018-02-20T22:03:06.492Z,94997.11
2018-02-20T22:05:34.080Z,94999.19
2018-02-20T22:08:01.721Z,95004.25
2018-02-20T22:10:29.667Z,95008.44
2018-02-20T22:12:57.253Z,95004.80
2018-02-20T22:15:24.822Z,95008.77
2018-02-20T22:17:52.421Z,95007.40
2018-02-20T22:20:20.002Z,94996.95
2018-02-20T22:22:47.569Z,95001.08
2018-02-20T22:25:15.278Z,94995.06
2018-02-20T22:27:42.852Z,95003.67
2018-02-20T22:30:10.468Z,95004.31
2018-02-20T22:32:38.048Z,95005.10
2018-02-20T22:35:05.651Z,95000.77
2018-02-20T22:37:33.214Z,94998.58
2018-02-20T22:40:00.787Z,94983.42
2018-02-20T22:42:28.362Z,94990.17
2018-02-20T22:44:55.952Z,95000.86
2018-02-20T22:47:23.501Z,94990.66
2018-02-20T22:49:51.098Z,94999.66
2018-02-20T22:52:18.721Z,94997.84
2018-02-20T22:54:46.299Z,95003.84
2018-02-20T22:57:13.877Z,95008.34
2018-02-20T22:59:41.465Z,95005.44
2018-02-20T23:02:09.064Z,94997.53
2018-02-20T23:04:36.617Z,95005.98
2018-02-20T23:07:04.199Z,94995.42
2018-02-20T23:09:31.769Z,95012.70
2018-02-20T23:11:59.322Z,95005.52
2018-02-20T23:14:26.944Z,95004.91
2018-02-20T23:16:54.546Z,95018.03
2018-02-20T23:19:22.258Z,95009.48
2018-02-20T23:21:49.865Z,95004.61
2018-02-20T23:24:17.471Z,95009.67
2018-02-20T23:26:45.222Z,95008.54
2018-02-20T23:29:12.798Z,94993.00
2018-02-20T23:31:40.489Z,94992.61
2018-02-20T23:34:08.080Z,94994.08
2018-02-20T23:36:35.644Z,94991.56
2018-02-20T23:39:03.195Z,94988.36
2018-02-20T23:41:30.717Z,95006.44
2018-02-20T23:43:58.272Z,95002.16
2018-02-20T23:46:25.806Z,94991.02
2018-02-20T23:48:53.353Z,95001.67
2018-02-20T23:51:26.610Z,94978.91
2018-02-20T23:53:54.144Z,94985.03
2018-02-20T23:56:21.712Z,94982.44
2018-02-20T23:58:49.262Z,94983.78
